Time;durP1;ratioP1;P1;durP2;ratioP2;P2;SDS_P1;SDS_P2;PMS_P1;PMS_P2;Temp;Humidity;BMP_temperature;BMP_pressure;BME280_temperature;BME280_humidity;BME280_pressure;Samples;Min_cycle;Max_cycle;Signal;HPM_P1;HPM_P2
2023/09/20 00:01:52;;;;;;;;;;;;;;;15.01;100.00;99900.09;5055327;28;905;-67
2023/09/20 00:04:19;;;;;;;;;;;;;;;15.00;100.00;99898.50;5055234;28;812;-66
2023/09/20 00:06:46;;;;;;;;;;;;;;;14.97;100.00;99897.38;5055197;28;855;-66
2023/09/20 00:09:15;;;;;;;;;;;;;;;14.97;100.00;99899.38;5055174;28;1945;-66
2023/09/20 00:11:46;;;;;;;;;;;;;;;14.97;100.00;99902.94;5055209;28;926;-67
2023/09/20 00:14:13;;;;;;;;;;;;;;;14.96;100.00;99908.97;5054975;28;1258;-67
2023/09/20 00:16:41;;;;;;;;;;;;;;;14.90;100.00;99903.88;5037104;28;1256;-66
2023/09/20 00:19:08;;;;;;;;;;;;;;;14.87;100.00;99904.75;5055021;28;887;-67
2023/09/20 00:21:35;;;;;;;;;;;;;;;14.85;100.00;99900.81;5054937;28;840;-67
2023/09/20 00:24:04;;;;;;;;;;;;;;;14.86;100.00;99899.59;5054801;28;1031;-66
2023/09/20 00:26:32;;;;;;;;;;;;;;;14.82;100.00;99896.88;5054744;28;863;-67
2023/09/20 00:29:04;;;;;;;;;;;;;;;14.80;100.00;99888.19;5054900;28;1981;-67
2023/09/20 00:31:32;;;;;;;;;;;;;;;14.81;100.00;99894.56;5054814;28;812;-66
2023/09/20 00:34:03;;;;;;;;;;;;;;;14.79;100.00;99896.97;5054675;28;800;-67
2023/09/20 00:36:30;;;;;;;;;;;;;;;14.76;100.00;99897.81;5036791;28;1176;-67
2023/09/20 00:38:58;;;;;;;;;;;;;;;14.75;100.00;99897.03;5054656;28;832;-67
2023/09/20 00:41:25;;;;;;;;;;;;;;;14.74;100.00;99900.25;5054572;28;816;-67
2023/09/20 00:43:52;;;;;;;;;;;;;;;14.73;100.00;99898.69;5036871;28;1199;-67
2023/09/20 00:46:23;;;;;;;;;;;;;;;14.75;100.00;99897.03;5054514;28;828;-67
2023/09/20 00:48:51;;;;;;;;;;;;;;;14.74;100.00;99895.47;5054665;28;872;-67
2023/09/20 00:51:21;;;;;;;;;;;;;;;14.77;100.00;99893.84;5053233;28;1886;-67
2023/09/20 00:53:49;;;;;;;;;;;;;;;14.78;100.00;99890.59;5054348;28;881;-67
2023/09/20 00:56:16;;;;;;;;;;;;;;;14.82;100.00;99887.75;5054229;28;879;-67
2023/09/20 00:58:43;;;;;;;;;;;;;;;14.87;100.00;99888.06;5054174;28;830;-67
2023/09/20 01:01:11;;;;;;;;;;;;;;;14.94;100.00;99889.91;5054272;28;831;-67
2023/09/20 01:03:40;;;;;;;;;;;;;;;15.03;100.00;99895.66;5054236;28;871;-67
2023/09/20 01:06:09;;;;;;;;;;;;;;;15.10;100.00;99895.50;5054159;28;927;-66
2023/09/20 01:08:36;;;;;;;;;;;;;;;15.18;100.00;99895.34;5054118;28;840;-67
2023/09/20 01:11:04;;;;;;;;;;;;;;;15.24;100.00;99896.41;5053940;28;1943;-67
2023/09/20 01:13:30;;;;;;;;;;;;;;;15.30;100.00;99900.25;5053805;28;1390;-67
2023/09/20 01:16:01;;;;;;;;;;;;;;;15.34;100.00;99892.59;5053923;28;864;-67
2023/09/20 01:18:28;;;;;;;;;;;;;;;15.34;100.00;99900.16;5054159;28;812;-67
2023/09/20 01:20:55;;;;;;;;;;;;;;;15.35;100.00;99901.72;5054418;28;820;-67
2023/09/20 01:23:22;;;;;;;;;;;;;;;15.34;100.00;99903.75;5054203;28;903;-67
2023/09/20 01:25:49;;;;;;;;;;;;;;;15.33;100.00;99896.59;5053933;28;1223;-68
2023/09/20 01:28:16;;;;;;;;;;;;;;;15.32;100.00;99897.81;5035968;28;1164;-67
2023/09/20 01:30:49;;;;;;;;;;;;;;;15.32;100.00;99895.81;5053869;28;1914;-67
2023/09/20 01:33:16;;;;;;;;;;;;;;;15.32;100.00;99890.25;5053656;28;836;-67
2023/09/20 01:35:45;;;;;;;;;;;;;;;15.31;100.00;99877.53;5053562;28;868;-67
2023/09/20 01:38:12;;;;;;;;;;;;;;;15.31;100.00;99877.53;5053604;28;879;-67
2023/09/20 01:40:39;;;;;;;;;;;;;;;15.29;100.00;99879.97;5053594;28;907;-66
2023/09/20 01:43:06;;;;;;;;;;;;;;;15.28;100.00;99881.19;5053410;28;824;-66
2023/09/20 01:45:34;;;;;;;;;;;;;;;15.27;100.00;99879.59;5055564;28;887;-66
2023/09/20 01:48:04;;;;;;;;;;;;;;;15.30;100.00;99884.31;5054650;28;2367;-67
2023/09/20 01:50:32;;;;;;;;;;;;;;;15.29;100.00;99871.59;5073196;28;1909;-66
2023/09/20 01:53:00;;;;;;;;;;;;;;;15.25;100.00;99876.47;5073364;28;866;-67
2023/09/20 01:55:31;;;;;;;;;;;;;;;15.22;100.00;99873.78;5073107;28;885;-67
2023/09/20 01:58:05;;;;;;;;;;;;;;;15.17;100.00;99875.09;5073281;28;835;-67
2023/09/20 02:00:42;;;;;;;;;;;;;;;15.15;100.00;99879.50;5073341;28;831;-67
2023/09/20 02:03:13;;;;;;;;;;;;;;;15.09;100.00;99876.47;5072617;28;851;-67
2023/09/20 02:05:41;;;;;;;;;;;;;;;15.01;100.00;99878.59;5072939;28;875;-67
2023/09/20 02:08:08;;;;;;;;;;;;;;;14.99;100.00;99889.38;5072874;28;874;-67
2023/09/20 02:10:38;;;;;;;;;;;;;;;14.95;100.00;99887.88;5072826;28;1949;-67
2023/09/20 02:13:06;;;;;;;;;;;;;;;14.94;100.00;99883.56;5073009;28;1344;-67
2023/09/20 02:15:34;;;;;;;;;;;;;;;14.96;100.00;99875.56;5072878;28;920;-66
2023/09/20 02:18:05;;;;;;;;;;;;;;;15.02;100.00;99880.19;5072689;28;862;-67
2023/09/20 02:20:36;;;;;;;;;;;;;;;15.10;100.00;99884.34;5072677;28;828;-67
2023/09/20 02:23:04;;;;;;;;;;;;;;;15.20;100.00;99879.78;5072698;28;840;-67
2023/09/20 02:25:31;;;;;;;;;;;;;;;15.27;100.00;99879.59;5072611;28;847;-67
2023/09/20 02:27:59;;;;;;;;;;;;;;;15.31;100.00;99869.16;5072438;28;827;-67
2023/09/20 02:30:35;;;;;;;;;;;;;;;15.32;100.00;99867.97;5072499;28;1906;-67
2023/09/20 02:33:05;;;;;;;;;;;;;;;15.35;100.00;99869.09;5072649;28;843;-67
2023/09/20 02:35:33;;;;;;;;;;;;;;;15.40;100.00;99865.00;5072475;28;848;-67
2023/09/20 02:38:04;;;;;;;;;;;;;;;15.45;100.00;99861.72;5072404;28;881;-67
2023/09/20 02:40:33;;;;;;;;;;;;;;;15.49;100.00;99857.63;5072513;28;902;-67
2023/09/20 02:43:00;;;;;;;;;;;;;;;15.53;100.00;99851.94;5072264;28;934;-67
2023/09/20 02:45:30;;;;;;;;;;;;;;;15.57;100.00;99860.22;5072347;28;828;-67
2023/09/20 02:48:06;;;;;;;;;;;;;;;15.56;100.00;99859.44;5072451;28;895;-67
2023/09/20 02:50:33;;;;;;;;;;;;;;;15.56;100.00;99867.81;5072082;28;1943;-67
2023/09/20 02:53:01;;;;;;;;;;;;;;;15.56;100.00;99869.81;5072032;28;828;-67
2023/09/20 02:55:31;;;;;;;;;;;;;;;15.52;100.00;99869.91;5054161;28;1472;-67
2023/09/20 02:57:58;;;;;;;;;;;;;;;15.48;100.00;99875.53;5071947;28;926;-67
2023/09/20 03:00:31;;;;;;;;;;;;;;;15.49;100.00;99876.31;5071997;28;819;-67
2023/09/20 03:03:02;;;;;;;;;;;;;;;15.48;100.00;99878.31;5054010;28;1182;-67
2023/09/20 03:05:30;;;;;;;;;;;;;;;15.46;100.00;99872.41;5071884;28;768;-67
2023/09/20 03:07:58;;;;;;;;;;;;;;;15.46;100.00;99877.19;5072004;28;906;-67
2023/09/20 03:10:27;;;;;;;;;;;;;;;15.45;100.00;99875.63;5071839;28;1890;-67
2023/09/20 03:12:55;;;;;;;;;;;;;;;15.47;100.00;99867.63;5071903;28;1374;-67
2023/09/20 03:15:22;;;;;;;;;;;;;;;15.46;100.00;99869.63;5071205;28;1364;-67
2023/09/20 03:17:50;;;;;;;;;;;;;;;15.44;100.00;99862.91;5071854;28;902;-67
2023/09/20 03:20:24;;;;;;;;;;;;;;;15.43;100.00;99867.72;5070639;28;928;-67
2023/09/20 03:22:53;;;;;;;;;;;;;;;15.39;100.00;99864.22;5053691;28;1285;-67
2023/09/20 03:25:21;;;;;;;;;;;;;;;15.32;100.00;99864.41;5071726;28;864;-67
2023/09/20 03:27:49;;;;;;;;;;;;;;;15.24;100.00;99860.22;5071594;28;871;-67
2023/09/20 03:30:20;;;;;;;;;;;;;;;15.16;100.00;99851.22;5071661;28;1980;-67
2023/09/20 03:32:47;;;;;;;;;;;;;;;15.08;100.00;99861.75;5071538;28;812;-67
2023/09/20 03:35:14;;;;;;;;;;;;;;;15.05;100.00;99854.25;5071684;28;896;-67
2023/09/20 03:37:43;;;;;;;;;;;;;;;15.03;100.00;99855.91;5071526;28;847;-67
2023/09/20 03:40:23;;;;;;;;;;;;;;;15.01;100.00;99858.34;5070289;28;1261;-67
2023/09/20 03:42:54;;;;;;;;;;;;;;;14.99;100.00;99863.56;5071518;28;903;-67
2023/09/20 03:45:21;;;;;;;;;;;;;;;14.97;100.00;99866.75;5071555;28;886;-67
2023/09/20 03:47:57;;;;;;;;;;;;;;;14.92;100.00;99863.72;5071470;28;886;-67
2023/09/20 03:50:23;;;;;;;;;;;;;;;14.85;100.00;99862.66;5071542;28;1953;-67
2023/09/20 03:52:52;;;;;;;;;;;;;;;14.81;100.00;99864.72;5071560;28;823;-67
2023/09/20 03:55:23;;;;;;;;;;;;;;;14.79;100.00;99858.03;5071367;28;899;-67
2023/09/20 03:57:50;;;;;;;;;;;;;;;14.74;100.00;99859.28;5071448;28;871;-67
2023/09/20 04:00:24;;;;;;;;;;;;;;;14.72;100.00;99850.59;5071619;28;859;-67
2023/09/20 04:02:53;;;;;;;;;;;;;;;14.69;100.00;99854.25;5071315;28;917;-66
2023/09/20 04:05:20;;;;;;;;;;;;;;;14.65;100.00;99842.41;5071211;28;820;-67
2023/09/20 04:07:48;;;;;;;;;;;;;;;14.62;100.00;99846.06;5071282;28;879;-67
2023/09/20 04:10:16;;;;;;;;;;;;;;;14.64;100.00;99849.97;5071277;28;1955;-66
2023/09/20 04:12:45;;;;;;;;;;;;;;;14.66;100.00;99846.78;5071538;28;927;-66
2023/09/20 04:15:12;;;;;;;;;;;;;;;14.71;100.00;99851.81;5053091;28;2345;-66
2023/09/20 04:17:39;;;;;;;;;;;;;;;14.78;100.00;99854.44;5071302;28;862;-67
2023/09/20 04:20:11;;;;;;;;;;;;;;;14.83;100.00;99851.16;5053259;28;1362;-66
2023/09/20 04:22:40;;;;;;;;;;;;;;;14.82;100.00;99852.38;5071180;28;836;-66
2023/09/20 04:25:10;;;;;;;;;;;;;;;14.83;100.00;99853.94;5070018;28;2299;-67
2023/09/20 04:27:38;;;;;;;;;;;;;;;14.86;100.00;99853.06;5074865;28;859;-66
2023/09/20 04:30:08;;;;;;;;;;;;;;;14.89;100.00;99852.22;5074465;28;1957;-67
2023/09/20 04:32:36;;;;;;;;;;;;;;;14.91;100.00;99854.56;5073553;28;1278;-67
2023/09/20 04:35:04;;;;;;;;;;;;;;;14.91;100.00;99849.00;5074464;28;892;-67
2023/09/20 04:37:31;;;;;;;;;;;;;;;14.89;100.00;99848.66;5074628;28;886;-67
2023/09/20 04:39:58;;;;;;;;;;;;;;;14.83;100.00;99842.00;5074549;28;908;-66
2023/09/20 04:42:25;;;;;;;;;;;;;;;14.81;100.00;99839.69;5074569;28;878;-67
2023/09/20 04:44:52;;;;;;;;;;;;;;;14.80;100.00;99846.44;5056250;28;1287;-67
2023/09/20 04:47:19;;;;;;;;;;;;;;;14.82;100.00;99846.81;5074289;28;923;-67
2023/09/20 04:49:46;;;;;;;;;;;;;;;14.82;100.00;99834.91;5074592;28;1885;-67
2023/09/20 04:52:15;;;;;;;;;;;;;;;14.82;100.00;99832.13;5074281;28;887;-67
2023/09/20 04:54:44;;;;;;;;;;;;;;;14.84;100.00;99836.03;5074422;28;906;-67
2023/09/20 04:57:14;;;;;;;;;;;;;;;14.87;100.00;99843.53;5074099;28;832;-67
2023/09/20 04:59:42;;;;;;;;;;;;;;;14.69;100.00;99806.97;5074444;28;824;-67
2023/09/20 05:02:10;;;;;;;;;;;;;;;14.94;100.00;99844.59;5074441;28;891;-67
2023/09/20 05:04:38;;;;;;;;;;;;;;;14.96;100.00;99839.38;5074124;28;836;-67
2023/09/20 05:07:05;;;;;;;;;;;;;;;15.12;100.00;99844.97;5072984;28;919;-67
2023/09/20 05:09:35;;;;;;;;;;;;;;;15.53;100.00;99854.72;5074047;28;1882;-67
2023/09/20 05:12:03;;;;;;;;;;;;;;;15.88;100.00;99847.53;5074290;28;979;-67
2023/09/20 05:14:30;;;;;;;;;;;;;;;16.11;100.00;99854.13;5073905;28;1528;-67
2023/09/20 05:16:57;;;;;;;;;;;;;;;16.33;100.00;99865.47;5073991;28;903;-67
2023/09/20 05:19:24;;;;;;;;;;;;;;;16.54;100.00;99861.28;5073916;28;828;-67
2023/09/20 05:21:51;;;;;;;;;;;;;;;16.74;100.00;99869.47;5074121;28;840;-67
2023/09/20 05:24:18;;;;;;;;;;;;;;;16.94;100.00;99869.31;5073884;28;950;-68
2023/09/20 05:26:46;;;;;;;;;;;;;;;17.19;100.00;99873.38;5073718;28;843;-68
2023/09/20 05:29:13;;;;;;;;;;;;;;;17.47;100.00;99864.06;5073653;28;1911;-68
2023/09/20 05:31:41;;;;;;;;;;;;;;;17.87;100.00;99852.41;5073945;28;844;-67
2023/09/20 05:34:08;;;;;;;;;;;;;;;18.53;100.00;99855.28;5073607;28;875;-68
2023/09/20 05:36:35;;;;;;;;;;;;;;;18.97;100.00;99852.47;5073516;28;962;-67
2023/09/20 05:39:06;;;;;;;;;;;;;;;19.31;100.00;99842.34;5073189;28;898;-68
2023/09/20 05:41:34;;;;;;;;;;;;;;;19.83;100.00;99855.88;5073610;28;839;-68
2023/09/20 05:44:00;;;;;;;;;;;;;;;20.30;100.00;99854.66;5073471;28;822;-68
2023/09/20 05:46:28;;;;;;;;;;;;;;;20.49;100.00;99856.19;5073691;28;840;-68
2023/09/20 05:48:55;;;;;;;;;;;;;;;20.49;100.00;99873.03;5073420;28;831;-68
2023/09/20 05:51:22;;;;;;;;;;;;;;;20.11;100.00;99881.94;5073211;28;1943;-68
2023/09/20 05:53:49;;;;;;;;;;;;;;;19.58;100.00;99883.66;5073278;28;823;-68
2023/09/20 05:56:18;;;;;;;;;;;;;;;19.17;100.00;99887.72;5073377;28;824;-68
2023/09/20 05:58:45;;;;;;;;;;;;;;;18.89;100.00;99890.38;5073214;28;867;-68
2023/09/20 06:01:13;;;;;;;;;;;;;;;18.73;100.00;99887.75;5073049;28;883;-68
2023/09/20 06:03:40;;;;;;;;;;;;;;;18.69;100.00;99904.69;5073133;28;851;-68
2023/09/20 06:06:09;;;;;;;;;;;;;;;18.77;100.00;99908.00;5073228;28;851;-68
2023/09/20 06:08:36;;;;;;;;;;;;;;;18.96;100.00;99917.34;5073085;28;891;-69
2023/09/20 06:11:04;;;;;;;;;;;;;;;19.13;100.00;99931.91;5073136;28;1949;-71
2023/09/20 06:13:32;;;;;;;;;;;;;;;19.61;100.00;99926.03;5073032;28;1459;-69
2023/09/20 06:15:58;;;;;;;;;;;;;;;20.18;100.00;99930.13;5073060;28;869;-69
2023/09/20 06:18:25;;;;;;;;;;;;;;;20.48;100.00;99933.22;5072991;28;836;-68
2023/09/20 06:20:55;;;;;;;;;;;;;;;20.57;100.00;99938.91;5072841;28;859;-68
2023/09/20 06:23:25;;;;;;;;;;;;;;;20.67;100.00;99939.66;5072619;28;869;-68
2023/09/20 06:25:53;;;;;;;;;;;;;;;20.83;100.00;99938.56;5072670;28;885;-69
2023/09/20 06:28:20;;;;;;;;;;;;;;;21.21;100.00;99949.25;5054644;28;907;-69
2023/09/20 06:30:47;;;;;;;;;;;;;;;21.35;100.00;99949.84;5072535;28;1910;-70
2023/09/20 06:33:14;;;;;;;;;;;;;;;21.41;100.00;99950.75;5072490;28;871;-70
2023/09/20 06:35:41;;;;;;;;;;;;;;;21.52;100.00;99948.25;5072830;28;832;-69
2023/09/20 06:38:09;;;;;;;;;;;;;;;21.81;100.00;99946.88;5072362;28;875;-70
2023/09/20 06:40:40;;;;;;;;;;;;;;;22.00;100.00;99945.50;5072453;28;898;-69
2023/09/20 07:14:07;;;;;;;;;;;;;;;28.64;98.00;99951.75;5112846;22;1663;-58
2023/09/20 07:16:36;;;;;;;;;;;;;;;27.62;100.00;99950.50;5071707;28;862;-58
2023/09/20 07:19:05;;;;;;;;;;;;;;;26.51;100.00;99958.31;5071699;28;871;-58
2023/09/20 07:21:37;;;;;;;;;;;;;;;25.47;100.00;99951.75;5071692;28;1321;-58
2023/09/20 07:24:06;;;;;;;;;;;;;;;25.66;100.00;99961.41;5071667;28;953;-58
2023/09/20 07:26:33;;;;;;;;;;;;;;;26.21;100.00;99955.88;5071720;28;835;-58
2023/09/20 07:29:00;;;;;;;;;;;;;;;26.58;100.00;99955.75;5071520;28;823;-58
2023/09/20 07:31:28;;;;;;;;;;;;;;;26.77;100.00;99947.56;5071541;28;1965;-58
2023/09/20 07:33:56;;;;;;;;;;;;;;;26.75;100.00;99952.22;5071595;28;836;-58
2023/09/20 07:36:23;;;;;;;;;;;;;;;27.30;95.75;99950.75;5071479;28;886;-58
2023/09/20 07:38:50;;;;;;;;;;;;;;;27.89;94.34;99941.19;5071656;28;835;-58
2023/09/20 07:41:20;;;;;;;;;;;;;;;28.23;88.10;99943.91;5053590;28;1330;-58
2023/09/20 07:43:47;;;;;;;;;;;;;;;28.17;87.71;99948.84;5071412;28;869;-58
2023/09/20 07:46:15;;;;;;;;;;;;;;;28.08;87.90;99943.47;5071475;28;922;-58
2023/09/20 07:48:48;;;;;;;;;;;;;;;27.79;87.94;99942.72;5071715;28;874;-58
2023/09/20 07:51:19;;;;;;;;;;;;;;;27.73;87.82;99941.94;5071295;28;1960;-58
2023/09/20 07:53:51;;;;;;;;;;;;;;;27.52;85.99;99949.97;5071627;28;906;-58
2023/09/20 07:56:20;;;;;;;;;;;;;;;27.24;87.65;99941.47;5071334;28;882;-58
2023/09/20 07:58:47;;;;;;;;;;;;;;;27.26;87.82;99933.22;5071316;28;892;-58
2023/09/20 08:01:21;;;;;;;;;;;;;;;27.31;87.61;99943.78;5073642;28;867;-58
2023/09/20 08:03:58;;;;;;;;;;;;;;;27.35;84.30;99940.69;5075263;28;871;-58
2023/09/20 08:06:29;;;;;;;;;;;;;;;27.17;82.91;99937.06;5075245;28;918;-58
2023/09/20 08:08:56;;;;;;;;;;;;;;;27.31;83.32;99943.78;5075276;28;831;-58
2023/09/20 08:11:24;;;;;;;;;;;;;;;27.28;76.57;99942.75;5075082;28;1948;-58
2023/09/20 08:13:53;;;;;;;;;;;;;;;27.48;73.21;99946.63;5074842;28;1403;-58
2023/09/20 08:16:21;;;;;;;;;;;;;;;27.79;72.85;99942.72;5075115;28;875;-58
2023/09/20 08:21:34;;;;;;;;;;;;;;;28.37;69.58;99936.34;5075277;28;576;-58
2023/09/20 09:00:31;;;;;;;;;;;;;;;30.63;50.45;99942.94;5074332;28;690;-58
2023/09/20 09:03:00;;;;;;;;;;;;;;;30.26;50.87;99947.28;5073644;28;812;-58
2023/09/20 09:05:28;;;;;;;;;;;;;;;30.15;50.75;99933.16;5074240;28;843;-58
2023/09/20 09:07:56;;;;;;;;;;;;;;;30.03;50.91;99929.66;5073982;28;847;-57
2023/09/20 09:10:23;;;;;;;;;;;;;;;29.82;51.22;99933.00;5074015;28;1886;-57
2023/09/20 09:12:50;;;;;;;;;;;;;;;29.64;51.94;99937.31;5072986;28;1368;-58
2023/09/20 09:15:17;;;;;;;;;;;;;;;29.69;51.61;99924.31;5074019;28;1347;-58
2023/09/20 09:17:45;;;;;;;;;;;;;;;29.61;51.54;99929.06;5074019;28;1198;-58
2023/09/20 09:20:13;;;;;;;;;;;;;;;29.58;51.80;99924.44;5074045;28;906;-58
2023/09/20 09:22:44;;;;;;;;;;;;;;;29.53;52.07;99926.00;5074145;28;812;-57
2023/09/20 09:25:11;;;;;;;;;;;;;;;29.64;52.68;99920.22;5073810;28;820;-58
2023/09/20 09:27:39;;;;;;;;;;;;;;;29.55;50.52;99923.41;5055870;28;1161;-58
2023/09/20 09:30:08;;;;;;;;;;;;;;;29.65;50.85;99916.06;5073624;28;1972;-58
2023/09/20 09:32:36;;;;;;;;;;;;;;;29.74;51.21;99920.66;5073707;28;875;-58
2023/09/20 09:35:05;;;;;;;;;;;;;;;29.68;50.57;99914.22;5073423;28;831;-57
2023/09/20 09:37:31;;;;;;;;;;;;;;;29.72;50.51;99909.03;5073598;28;847;-58
2023/09/20 09:40:03;;;;;;;;;;;;;;;29.91;50.55;99911.91;5073256;28;870;-58
2023/09/20 09:42:30;;;;;;;;;;;;;;;29.99;49.85;99910.03;5073332;28;895;-57
2023/09/20 09:44:58;;;;;;;;;;;;;;;29.85;49.29;99900.59;5073292;28;970;-58
2023/09/20 09:47:24;;;;;;;;;;;;;;;29.92;49.59;99900.00;5073107;28;945;-57
2023/09/20 09:49:51;;;;;;;;;;;;;;;30.01;49.14;99898.84;5072874;28;1941;-57
2023/09/20 09:52:28;;;;;;;;;;;;;;;30.03;49.97;99904.78;5038251;28;1619;-58
2023/09/20 09:54:56;;;;;;;;;;;;;;;30.06;49.35;99905.78;5073393;28;858;-58
2023/09/20 09:57:23;;;;;;;;;;;;;;;29.97;49.01;99898.38;5072856;28;828;-58
2023/09/20 09:59:51;;;;;;;;;;;;;;;29.88;49.27;99895.91;5073051;28;862;-58
2023/09/20 10:02:22;;;;;;;;;;;;;;;29.84;49.11;99898.28;5072920;28;887;-58
2023/09/20 10:04:58;;;;;;;;;;;;;;;29.97;48.31;99901.22;5073017;28;920;-58
2023/09/20 10:07:29;;;;;;;;;;;;;;;29.80;48.74;99898.56;5072969;28;812;-58
2023/09/20 10:10:00;;;;;;;;;;;;;;;29.92;49.32;99894.31;5072712;28;1905;-58
2023/09/20 10:12:26;;;;;;;;;;;;;;;30.42;48.24;99897.84;5073214;28;904;-58
2023/09/20 10:14:53;;;;;;;;;;;;;;;30.65;47.76;99894.69;5072521;28;1307;-58
2023/09/20 10:17:23;;;;;;;;;;;;;;;30.61;47.21;99894.22;5054820;28;1188;-58
2023/09/20 10:19:53;;;;;;;;;;;;;;;30.38;47.61;99888.81;5072671;28;883;-58
2023/09/20 10:22:21;;;;;;;;;;;;;;;30.50;47.13;99898.00;5072657;28;793;-58
2023/09/20 10:24:58;;;;;;;;;;;;;;;30.76;46.61;99888.03;5072396;28;959;-57
2023/09/20 10:27:30;;;;;;;;;;;;;;;30.80;46.49;99891.34;5073013;28;871;-57
2023/09/20 10:30:10;;;;;;;;;;;;;;;30.93;47.24;99889.31;5072438;28;1909;-57
2023/09/20 10:32:59;;;;;;;;;;;;;;;31.20;46.22;99885.78;5054461;28;1223;-57
2023/09/20 10:35:33;;;;;;;;;;;;;;;31.36;45.29;99879.00;5072497;28;1270;-57
2023/09/20 10:38:23;;;;;;;;;;;;;;;31.35;45.70;99883.19;5072358;28;840;-58
2023/09/20 10:40:57;;;;;;;;;;;;;;;31.70;44.74;99873.44;5072207;28;828;-58
2023/09/20 10:43:25;;;;;;;;;;;;;;;31.51;44.35;99878.50;5072288;28;907;-58
2023/09/20 10:45:53;;;;;;;;;;;;;;;31.66;44.65;99872.25;5072128;28;836;-58
2023/09/20 10:48:30;;;;;;;;;;;;;;;32.12;43.77;99870.81;5072533;28;863;-58
2023/09/20 10:50:59;;;;;;;;;;;;;;;32.59;43.18;99869.28;5071957;28;1886;-58
2023/09/20 10:53:50;;;;;;;;;;;;;;;32.32;41.43;99869.31;5071950;28;953;-58
2023/09/20 10:56:35;;;;;;;;;;;;;;;31.57;42.29;99864.88;5072007;28;846;-58
2023/09/20 10:59:04;;;;;;;;;;;;;;;31.76;41.65;99861.16;5071920;28;869;-58
2023/09/20 11:01:32;;;;;;;;;;;;;;;31.40;42.04;99858.69;5072138;28;874;-58
2023/09/20 11:03:59;;;;;;;;;;;;;;;31.28;43.23;99849.56;5072107;28;854;-58
2023/09/20 11:06:26;;;;;;;;;;;;;;;31.79;42.86;99852.25;5072075;28;815;-58
2023/09/20 11:08:55;;;;;;;;;;;;;;;32.17;42.21;99854.09;5071893;28;948;-58
2023/09/20 11:14:26;;;;;;;;;;;;;;;32.74;40.69;99840.06;5070506;28;1279;-58
2023/09/20 11:16:53;;;;;;;;;;;;;;;33.04;40.04;99839.56;5071862;28;883;-58
2023/09/20 11:19:19;;;;;;;;;;;;;;;33.14;38.47;99837.78;5071798;28;804;-58
2023/09/20 11:21:47;;;;;;;;;;;;;;;33.33;38.30;99843.25;5072176;28;808;-58
2023/09/20 11:24:15;;;;;;;;;;;;;;;33.63;37.56;99838.31;5071795;28;844;-58
2023/09/20 11:26:47;;;;;;;;;;;;;;;33.33;37.66;99848.22;5071724;28;807;-58
2023/09/20 11:29:17;;;;;;;;;;;;;;;32.44;38.05;99841.25;5071769;28;848;-58
2023/09/20 11:31:48;;;;;;;;;;;;;;;32.17;38.19;99836.94;5071686;28;811;-58
2023/09/20 11:34:17;;;;;;;;;;;;;;;32.91;37.35;99836.78;5072055;28;839;-58
2023/09/20 11:36:46;;;;;;;;;;;;;;;32.45;36.98;99825.63;5071110;28;882;-58
2023/09/20 11:39:17;;;;;;;;;;;;;;;31.56;38.23;99834.81;5071629;28;835;-58
2023/09/20 11:41:45;;;;;;;;;;;;;;;31.65;39.92;99825.03;5071669;28;851;-58
2023/09/20 11:44:12;;;;;;;;;;;;;;;32.69;38.77;99824.56;5071573;28;942;-58
2023/09/20 11:46:39;;;;;;;;;;;;;;;33.64;36.79;99825.53;5071794;28;866;-58
2023/09/20 11:49:08;;;;;;;;;;;;;;;34.11;36.73;99833.75;5071594;28;823;-58
2023/09/20 11:51:35;;;;;;;;;;;;;;;33.96;36.24;99817.25;5053474;28;1918;-58
2023/09/20 11:54:10;;;;;;;;;;;;;;;34.06;36.19;99820.38;5071422;28;1001;-58
2023/09/20 11:56:37;;;;;;;;;;;;;;;34.12;35.57;99817.38;5071414;28;938;-58
2023/09/20 11:59:09;;;;;;;;;;;;;;;34.41;35.73;99812.28;5071258;28;1785;-58
2023/09/20 12:01:41;;;;;;;;;;;;;;;34.68;34.95;99809.09;5071365;28;867;-58
2023/09/20 12:04:08;;;;;;;;;;;;;;;35.02;33.96;99813.72;5071406;28;816;-59
2023/09/20 12:06:36;;;;;;;;;;;;;;;35.63;33.61;99807.09;5071655;28;894;-58
2023/09/20 12:09:04;;;;;;;;;;;;;;;36.43;32.51;99800.66;5071293;28;815;-59
2023/09/20 12:11:32;;;;;;;;;;;;;;;36.81;31.83;99810.38;5071505;28;1885;-59
2023/09/20 12:13:59;;;;;;;;;;;;;;;36.62;31.75;99802.25;5071127;28;1289;-58
2023/09/20 12:16:25;;;;;;;;;;;;;;;35.96;32.06;99803.00;5071267;28;871;-58
2023/09/20 12:18:58;;;;;;;;;;;;;;;34.90;32.35;99808.34;5071242;28;828;-58
2023/09/20 12:21:28;;;;;;;;;;;;;;;34.17;33.87;99804.94;5071140;28;1968;-58
2023/09/20 12:23:55;;;;;;;;;;;;;;;34.94;33.65;99800.09;5071229;28;962;-58
2023/09/20 12:26:24;;;;;;;;;;;;;;;35.47;33.13;99810.03;5071062;28;902;-58
2023/09/20 12:28:52;;;;;;;;;;;;;;;33.65;36.18;99810.66;5071246;28;939;-58
2023/09/20 12:31:23;;;;;;;;;;;;;;;32.10;39.08;99801.22;5071350;28;894;-57
2023/09/20 12:33:52;;;;;;;;;;;;;;;31.12;40.91;99809.34;5071407;28;903;-58
2023/09/20 12:36:21;;;;;;;;;;;;;;;31.16;41.57;99800.47;5071190;28;847;-57
2023/09/20 12:38:48;;;;;;;;;;;;;;;31.05;42.06;99810.00;5071059;28;863;-57
2023/09/20 12:41:17;;;;;;;;;;;;;;;30.81;43.03;99813.78;5071012;28;1964;-58
2023/09/20 12:43:44;;;;;;;;;;;;;;;30.93;43.54;99802.97;5070914;28;883;-57
2023/09/20 12:46:11;;;;;;;;;;;;;;;31.11;43.27;99807.84;5071376;28;939;-58
2023/09/20 12:48:38;;;;;;;;;;;;;;;31.10;43.45;99814.06;5074455;28;979;-58
2023/09/20 12:51:07;;;;;;;;;;;;;;;31.21;42.71;99810.25;5074542;28;812;-58
2023/09/20 12:53:34;;;;;;;;;;;;;;;30.86;43.46;99815.00;5074471;28;827;-58
2023/09/20 12:56:04;;;;;;;;;;;;;;;30.59;44.47;99812.03;5074396;28;933;-58
2023/09/20 12:58:31;;;;;;;;;;;;;;;31.02;44.47;99799.69;5074642;28;890;-57
2023/09/20 13:00:59;;;;;;;;;;;;;;;31.35;43.78;99800.38;5074281;28;1957;-58
2023/09/20 13:03:28;;;;;;;;;;;;;;;31.57;43.33;99796.34;5074596;28;902;-58
2023/09/20 13:05:56;;;;;;;;;;;;;;;31.58;43.45;99789.31;5074243;28;863;-58
2023/09/20 13:08:24;;;;;;;;;;;;;;;31.46;43.14;99799.44;5074274;28;852;-58
2023/09/20 13:10:51;;;;;;;;;;;;;;;31.39;43.18;99797.97;5074343;28;851;-58
2023/09/20 13:13:19;;;;;;;;;;;;;;;31.47;43.56;99789.53;5074643;28;1369;-58
2023/09/20 13:15:47;;;;;;;;;;;;;;;31.48;43.53;99791.09;5074409;28;832;-58
2023/09/20 13:18:16;;;;;;;;;;;;;;;31.63;43.37;99785.56;5074135;28;927;-58
2023/09/20 13:20:43;;;;;;;;;;;;;;;31.72;42.93;99790.81;5073953;28;1918;-58
2023/09/20 13:23:11;;;;;;;;;;;;;;;31.78;43.43;99790.72;5074078;28;840;-57
2023/09/20 13:25:44;;;;;;;;;;;;;;;31.95;42.29;99796.06;5074035;28;884;-58
2023/09/20 13:28:12;;;;;;;;;;;;;;;32.18;42.08;99798.44;5074028;28;862;-58
2023/09/20 13:30:40;;;;;;;;;;;;;;;32.35;41.69;99793.88;5073844;28;828;-58
2023/09/20 13:33:08;;;;;;;;;;;;;;;32.25;41.79;99789.19;5073696;28;899;-58
2023/09/20 13:35:35;;;;;;;;;;;;;;;32.10;41.91;99786.94;5073668;28;827;-58
2023/09/20 13:38:04;;;;;;;;;;;;;;;31.95;42.45;99790.34;5073612;28;853;-58
2023/09/20 13:40:31;;;;;;;;;;;;;;;31.68;43.11;99787.53;5073613;28;1958;-58
2023/09/20 13:42:58;;;;;;;;;;;;;;;31.43;43.40;99791.94;5055750;28;862;-58
2023/09/20 13:45:26;;;;;;;;;;;;;;;30.98;44.24;99789.91;5073550;28;920;-58
2023/09/20 13:47:53;;;;;;;;;;;;;;;30.74;45.18;99775.22;5073479;28;874;-57
2023/09/20 13:50:21;;;;;;;;;;;;;;;30.61;46.31;99789.47;5073430;28;871;-57
2023/09/20 13:52:48;;;;;;;;;;;;;;;30.41;46.55;99787.97;5073332;28;898;-58
2023/09/20 13:55:16;;;;;;;;;;;;;;;30.22;47.42;99793.66;5073320;28;824;-57
2023/09/20 13:57:47;;;;;;;;;;;;;;;30.17;47.66;99793.72;5073285;28;871;-58
2023/09/20 14:00:18;;;;;;;;;;;;;;;30.23;47.58;99803.72;5072981;28;1955;-58
2023/09/20 14:02:45;;;;;;;;;;;;;;;30.11;47.67;99802.38;5073122;28;966;-57
2023/09/20 14:05:15;;;;;;;;;;;;;;;29.83;48.59;99799.88;5073167;28;918;-57
2023/09/20 14:07:49;;;;;;;;;;;;;;;29.26;49.57;99799.75;5073092;28;816;-57
2023/09/20 14:10:17;;;;;;;;;;;;;;;28.94;51.10;99793.84;5073288;28;824;-57
2023/09/20 14:12:43;;;;;;;;;;;;;;;28.93;51.65;99793.03;5073255;28;894;-57
2023/09/20 14:15:12;;;;;;;;;;;;;;;29.14;51.86;99804.00;5072763;28;1310;-57
2023/09/20 14:17:43;;;;;;;;;;;;;;;29.00;51.13;99803.84;5072707;28;903;-57
2023/09/20 14:20:15;;;;;;;;;;;;;;;28.90;51.60;99791.28;5073002;28;1917;-57
2023/09/20 14:22:43;;;;;;;;;;;;;;;28.96;52.03;99800.53;5054918;28;882;-58